<?xml version='1.0' encoding='UTF-8'?><gpx version="1.1" creator="JPX - https://github.com/jenetics/jpx" xmlns="http://www.topografix.com/GPX/1/1"><trk><trkseg><trkpt lat="48.001504459332644" lon="7.002278858817152"><ele>701.0</ele><time>2026-04-05T12:26:19.999Z</time></trkpt><trkpt lat="48.00153595397931" lon="7.002365168554756"><ele>701.0</ele><time>2026-04-05T12:26:29Z</time></trkpt><trkpt lat="48.00158132145428" lon="7.00246190551025"><ele>701.0</ele><time>2026-04-05T12:26:37Z</time></trkpt><trkpt lat="48.0016362174598" lon="7.002512463869473"><ele>701.0</ele><time>2026-04-05T12:26:43Z</time></trkpt><trkpt lat="48.00170672702864" lon="7.002550458421322"><ele>701.0</ele><time>2026-04-05T12:26:51Z</time></trkpt><trkpt lat="48.00176213663842" lon="7.002497093227419"><ele>701.0</ele><time>2026-04-05T12:26:59Z</time></trkpt><trkpt lat="48.00178461519836" lon="7.002402437013546"><ele>701.0</ele><time>2026-04-05T12:27:18Z</time></trkpt><trkpt lat="48.00181469878696" lon="7.002309487045088"><ele>703.0</ele><time>2026-04-05T12:27:22Z</time></trkpt><trkpt lat="48.00180533315799" lon="7.002204567093589"><ele>705.0</ele><time>2026-04-05T12:27:32Z</time></trkpt><trkpt lat="48.001805490819926" lon="7.002101945832683"><ele>707.0</ele><time>2026-04-05T12:27:42Z</time></trkpt><trkpt lat="48.00176058787749" lon="7.00198274536315"><ele>709.0</ele><time>2026-04-05T12:28:10.001Z</time></trkpt><trkpt lat="48.00175794735652" lon="7.001878622048191"><ele>711.0</ele><time>2026-04-05T12:28:19.998Z</time></trkpt><trkpt lat="48.00175980123485" lon="7.001782545994556"><ele>713.0</ele><time>2026-04-05T12:28:28.998Z</time></trkpt><trkpt lat="48.0017631176192" lon="7.001683843487765"><ele>715.0</ele><time>2026-04-05T12:28:38.999Z</time></trkpt><trkpt lat="48.001764642306966" lon="7.00156427710007"><ele>715.8571428571429</ele><time>2026-04-05T12:29:03.999Z</time></trkpt><trkpt lat="48.00177159692913" lon="7.001466375136691"><ele>716.7142857142857</ele><time>2026-04-05T12:29:16.999Z</time></trkpt><trkpt lat="48.00178881731453" lon="7.001374651403241"><ele>717.5714285714286</ele><time>2026-04-05T12:29:26Z</time></trkpt><trkpt lat="48.001800010968644" lon="7.0012612263429315"><ele>718.4285714285714</ele><time>2026-04-05T12:29:36Z</time></trkpt><trkpt lat="48.00181167741337" lon="7.001158743932044"><ele>719.2857142857142</ele><time>2026-04-05T12:29:45Z</time></trkpt><trkpt lat="48.00181531727228" lon="7.001056573274929"><ele>720.1428571428571</ele><time>2026-04-05T12:29:58Z</time></trkpt><trkpt lat="48.00182965206421" lon="7.000963762466457"><ele>721.0</ele><time>2026-04-05T12:30:09Z</time></trkpt><trkpt lat="48.00184779867702" lon="7.000866961260575"><ele>721.2857142857143</ele><time>2026-04-05T12:30:21.997Z</time></trkpt><trkpt lat="48.00187819592973" lon="7.000782429128818"><ele>721.5714285714286</ele><time>2026-04-05T12:30:38.998Z</time></trkpt><trkpt lat="48.00191074576795" lon="7.000699211718655"><ele>721.8571428571429</ele><time>2026-04-05T12:30:50.998Z</time></trkpt><trkpt lat="48.001966486320796" lon="7.000614659438861"><ele>722.1428571428571</ele><time>2026-04-05T12:31:00.999Z</time></trkpt><trkpt lat="48.002020644467066" lon="7.000564789759017"><ele>722.4285714285714</ele><time>2026-04-05T12:31:10.999Z</time></trkpt><trkpt lat="48.0020934131295" lon="7.000513392104281"><ele>722.7142857142858</ele><time>2026-04-05T12:31:25.999Z</time></trkpt><trkpt lat="48.00215269606246" lon="7.0004663838638495"><ele>723.0</ele><time>2026-04-05T12:31:37.999Z</time></trkpt><trkpt lat="48.00221631071031" lon="7.000427502693722"><ele>723.0000000000001</ele><time>2026-04-05T12:31:48Z</time></trkpt><trkpt lat="48.00229072484983" lon="7.000389870409975"><ele>723.0</ele><time>2026-04-05T12:32:22Z</time></trkpt><trkpt lat="48.002359516070044" lon="7.000356824113225"><ele>723.0</ele><time>2026-04-05T12:32:30.997Z</time></trkpt><trkpt lat="48.002423381880945" lon="7.0003261439059825"><ele>723.0</ele><time>2026-04-05T12:32:39.998Z</time></trkpt><trkpt lat="48.00248979136059" lon="7.000288087690611"><ele>723.0</ele><time>2026-04-05T12:32:54.998Z</time></trkpt><trkpt lat="48.002549719862714" lon="7.000251116162241"><ele>723.0000000000001</ele><time>2026-04-05T12:33:04.998Z</time></trkpt><trkpt lat="48.002609496704196" lon="7.000215310504859"><ele>723.0</ele><time>2026-04-05T12:33:13.999Z</time></trkpt><trkpt lat="48.00267621604646" lon="7.0001792800828575"><ele>725.0000000000001</ele><time>2026-04-05T12:34:30Z</time></trkpt><trkpt lat="48.002739679457726" lon="7.000155419813292"><ele>727.0</ele><time>2026-04-05T12:34:39.997Z</time></trkpt><trkpt lat="48.002804978614286" lon="7.000145999537567"><ele>729.0</ele><time>2026-04-05T12:34:50.998Z</time></trkpt><trkpt lat="48.00287599207777" lon="7.0001505688122005"><ele>731.0</ele><time>2026-04-05T12:35:01.998Z</time></trkpt><trkpt lat="48.002940406542436" lon="7.000163993527335"><ele>733.0</ele><time>2026-04-05T12:35:09.999Z</time></trkpt><trkpt lat="48.003015311220835" lon="7.000192720412412"><ele>735.0000000000001</ele><time>2026-04-05T12:35:25.999Z</time></trkpt><trkpt lat="48.00307113708812" lon="7.00025193827531"><ele>737.0</ele><time>2026-04-05T12:35:40Z</time></trkpt><trkpt lat="48.0031142038742" lon="7.000340023559168"><ele>737.0000000000001</ele><time>2026-04-05T12:36:01Z</time></trkpt><trkpt lat="48.00313232712707" lon="7.000439106239333"><ele>737.0</ele><time>2026-04-05T12:36:13.001Z</time></trkpt><trkpt lat="48.00313963880713" lon="7.000537155802638"><ele>737.0</ele><time>2026-04-05T12:36:22.001Z</time></trkpt><trkpt lat="48.003145209249254" lon="7.000635760368278"><ele>737.0</ele><time>2026-04-05T12:36:31.001Z</time></trkpt><trkpt lat="48.003153830384846" lon="7.000733412691581"><ele>737.0</ele><time>2026-04-05T12:36:39.997Z</time></trkpt><trkpt lat="48.003172221412" lon="7.000843990002018"><ele>737.0000000000001</ele><time>2026-04-05T12:36:51.998Z</time></trkpt><trkpt lat="48.00319382934913" lon="7.000932881853383"><ele>737.0</ele><time>2026-04-05T12:37:22.999Z</time></trkpt><trkpt lat="48.003217724465735" lon="7.001025871359054"><ele>737.7142857142858</ele><time>2026-04-05T12:37:32Z</time></trkpt><trkpt lat="48.00325399784894" lon="7.001107001881845"><ele>738.4285714285714</ele><time>2026-04-05T12:37:45Z</time></trkpt><trkpt lat="48.0032957554753" lon="7.001181971551599"><ele>739.1428571428571</ele><time>2026-04-05T12:37:59.001Z</time></trkpt><trkpt lat="48.003349167404004" lon="7.001110922475864"><ele>739.8571428571429</ele><time>2026-04-05T12:38:30.001Z</time></trkpt><trkpt lat="48.00337590778895" lon="7.001024512613672"><ele>740.5714285714286</ele><time>2026-04-05T12:38:42.002Z</time></trkpt><trkpt lat="48.0034065957671" lon="7.000922022669159"><ele>741.2857142857143</ele><time>2026-04-05T12:38:53.999Z</time></trkpt><trkpt lat="48.00343532249833" lon="7.0008247833499"><ele>742.0</ele><time>2026-04-05T12:39:03.999Z</time></trkpt><trkpt lat="48.003469740247496" lon="7.00070828007312"><ele>744.8571428571429</ele><time>2026-04-05T12:39:17Z</time></trkpt><trkpt lat="48.00351096276753" lon="7.000625835220146"><ele>747.7142857142858</ele><time>2026-04-05T12:39:25Z</time></trkpt><trkpt lat="48.003557082762775" lon="7.000557519403979"><ele>750.5714285714286</ele><time>2026-04-05T12:39:37Z</time></trkpt><trkpt lat="48.003606367832475" lon="7.000494655537053"><ele>753.4285714285714</ele><time>2026-04-05T12:39:49.001Z</time></trkpt><trkpt lat="48.003666892875636" lon="7.000446094440857"><ele>756.2857142857143</ele><time>2026-04-05T12:39:59.001Z</time></trkpt><trkpt lat="48.00373098730992" lon="7.000410471637055"><ele>759.1428571428571</ele><time>2026-04-05T12:40:11.001Z</time></trkpt><trkpt lat="48.003823305959685" lon="7.000432598269737"><ele>762.0</ele><time>2026-04-05T12:40:26.002Z</time></trkpt><trkpt lat="48.003824847819075" lon="7.000537860728215"><ele>762.0</ele><time>2026-04-05T12:40:31.002Z</time></trkpt><trkpt lat="48.0038327875997" lon="7.00063704831425"><ele>762.0</ele><time>2026-04-05T12:40:41.002Z</time></trkpt><trkpt lat="48.00382368020572" lon="7.0007320989267114"><ele>762.0</ele><time>2026-04-05T12:40:51.001Z</time></trkpt><trkpt lat="48.00379515585332" lon="7.00085606360705"><ele>762.0</ele><time>2026-04-05T12:42:08.001Z</time></trkpt><trkpt lat="48.003864308027" lon="7.0008285356766855"><ele>762.0</ele><time>2026-04-05T12:42:23.001Z</time></trkpt><trkpt lat="48.00393632433003" lon="7.000800731719452"><ele>762.0</ele><time>2026-04-05T12:42:28.001Z</time></trkpt><trkpt lat="48.00399745621402" lon="7.000771124854653"><ele>762.0</ele><time>2026-04-05T12:42:39.001Z</time></trkpt><trkpt lat="48.004019013612954" lon="7.000677348097017"><ele>762.0</ele><time>2026-04-05T12:42:45.002Z</time></trkpt><trkpt lat="48.00406986371487" lon="7.0006110255146075"><ele>762.0</ele><time>2026-04-05T12:42:59.001Z</time></trkpt><trkpt lat="48.0041320385423" lon="7.000587603781867"><ele>762.0</ele><time>2026-04-05T12:43:13Z</time></trkpt><trkpt lat="48.004201161263346" lon="7.000563207816565"><ele>762.0</ele><time>2026-04-05T12:43:30Z</time></trkpt><trkpt lat="48.00426574782477" lon="7.00054202997303"><ele>762.0</ele><time>2026-04-05T12:43:49Z</time></trkpt><trkpt lat="48.004329961131695" lon="7.0005214325435725"><ele>762.0</ele><time>2026-04-05T12:43:59.001Z</time></trkpt><trkpt lat="48.004411750071355" lon="7.000481800489947"><ele>762.0</ele><time>2026-04-05T12:44:17.001Z</time></trkpt><trkpt lat="48.004484876674645" lon="7.000461502172093"><ele>766.2857142857142</ele><time>2026-04-05T12:44:52.001Z</time></trkpt><trkpt lat="48.00455050220782" lon="7.000437805911511"><ele>770.5714285714287</ele><time>2026-04-05T12:45:01.001Z</time></trkpt><trkpt lat="48.00461567692396" lon="7.000423683331799"><ele>774.8571428571429</ele><time>2026-04-05T12:45:20Z</time></trkpt><trkpt lat="48.00468121170638" lon="7.000431826102737"><ele>779.1428571428571</ele><time>2026-04-05T12:45:31Z</time></trkpt><trkpt lat="48.00476100160412" lon="7.0004354073123345"><ele>783.4285714285713</ele><time>2026-04-05T12:46:20.001Z</time></trkpt><trkpt lat="48.004824585486986" lon="7.000407277439923"><ele>787.7142857142858</ele><time>2026-04-05T12:46:34.001Z</time></trkpt><trkpt lat="48.00488844761141" lon="7.000379936804209"><ele>792.0</ele><time>2026-04-05T12:46:50.001Z</time></trkpt><trkpt lat="48.004950800202415" lon="7.000359383492303"><ele>794.8571428571429</ele><time>2026-04-05T12:46:59.001Z</time></trkpt><trkpt lat="48.00501986056595" lon="7.0003440120787905"><ele>797.7142857142857</ele><time>2026-04-05T12:47:10Z</time></trkpt><trkpt lat="48.00513172611438" lon="7.000310570737902"><ele>800.5714285714286</ele><time>2026-04-05T12:47:42.001Z</time></trkpt><trkpt lat="48.00519220399005" lon="7.000278504752337"><ele>803.4285714285714</ele><time>2026-04-05T12:47:56.001Z</time></trkpt><trkpt lat="48.005255477331644" lon="7.000268602367166"><ele>806.2857142857142</ele><time>2026-04-05T12:48:05.001Z</time></trkpt><trkpt lat="48.00524022187703" lon="7.0003644878931315"><ele>809.1428571428571</ele><time>2026-04-05T12:48:58.002Z</time></trkpt><trkpt lat="48.00519059140737" lon="7.000428290288678"><ele>812.0</ele><time>2026-04-05T12:49:07.002Z</time></trkpt><trkpt lat="48.00515891267532" lon="7.000516030371895"><ele>812.0000000000001</ele><time>2026-04-05T12:49:15.001Z</time></trkpt><trkpt lat="48.00515202070719" lon="7.00062741310891"><ele>812.0</ele><time>2026-04-05T12:49:31.001Z</time></trkpt><trkpt lat="48.005142855420665" lon="7.0007208093244255"><ele>812.0</ele><time>2026-04-05T12:49:46.001Z</time></trkpt><trkpt lat="48.005171666785735" lon="7.00081412495248"><ele>812.0</ele><time>2026-04-05T12:49:55.001Z</time></trkpt><trkpt lat="48.005247968175034" lon="7.000840192935936"><ele>812.0000000000001</ele><time>2026-04-05T12:50:13.001Z</time></trkpt><trkpt lat="48.00537570986508" lon="7.000871542942559"><ele>812.0</ele><time>2026-04-05T12:50:44.002Z</time></trkpt><trkpt lat="48.00543977806492" lon="7.000827752371835"><ele>812.0</ele><time>2026-04-05T12:50:55.002Z</time></trkpt><trkpt lat="48.005504573335024" lon="7.000772213714384"><ele>812.0</ele><time>2026-04-05T12:51:18.002Z</time></trkpt><trkpt lat="48.00556697241772" lon="7.000817600695679"><ele>812.0</ele><time>2026-04-05T12:51:44.001Z</time></trkpt><trkpt lat="48.0056274699475" lon="7.000848322401346"><ele>812.0</ele><time>2026-04-05T12:53:16.002Z</time></trkpt><trkpt lat="48.00569475692138" lon="7.000839484079364"><ele>812.0</ele><time>2026-04-05T12:53:25.002Z</time></trkpt><trkpt lat="48.00576173394054" lon="7.000856149227603"><ele>812.0</ele><time>2026-04-05T12:53:35.001Z</time></trkpt><trkpt lat="48.005834315497246" lon="7.000875215706698"><ele>812.0</ele><time>2026-04-05T12:53:45.001Z</time></trkpt><trkpt lat="48.00590510224765" lon="7.000888412472185"><ele>814.8571428571429</ele><time>2026-04-05T12:53:55.001Z</time></trkpt><trkpt lat="48.00597125851242" lon="7.000903226155556"><ele>817.7142857142858</ele><time>2026-04-05T12:54:05.001Z</time></trkpt><trkpt lat="48.00604102656882" lon="7.000918848649521"><ele>820.5714285714286</ele><time>2026-04-05T12:54:15.001Z</time></trkpt><trkpt lat="48.00612951001026" lon="7.000938661770243"><ele>823.4285714285714</ele><time>2026-04-05T12:54:33.001Z</time></trkpt><trkpt lat="48.00619370668154" lon="7.000955458187539"><ele>826.2857142857143</ele><time>2026-04-05T12:54:46.001Z</time></trkpt><trkpt lat="48.00626284385916" lon="7.0009756089260975"><ele>829.1428571428571</ele><time>2026-04-05T12:54:54.001Z</time></trkpt><trkpt lat="48.00633434444789" lon="7.000996664565162"><ele>832.0</ele><time>2026-04-05T12:55:07.001Z</time></trkpt><trkpt lat="48.00640365753555" lon="7.001004760696514"><ele>832.0</ele><time>2026-04-05T12:55:22.001Z</time></trkpt><trkpt lat="48.00647099839433" lon="7.0009788417998"><ele>832.0</ele><time>2026-04-05T12:55:31.001Z</time></trkpt><trkpt lat="48.00653540701667" lon="7.001021189486957"><ele>832.0</ele><time>2026-04-05T12:55:39.001Z</time></trkpt><trkpt lat="48.006597766207136" lon="7.000984399164977"><ele>832.0</ele><time>2026-04-05T12:55:49.001Z</time></trkpt><trkpt lat="48.00666186816592" lon="7.001008525105513"><ele>832.0</ele><time>2026-04-05T12:55:57.001Z</time></trkpt><trkpt lat="48.006729736527205" lon="7.0010055476372495"><ele>832.0</ele><time>2026-04-05T12:56:11.001Z</time></trkpt><trkpt lat="48.00679750946644" lon="7.001001276352528"><ele>832.0</ele><time>2026-04-05T12:56:35.001Z</time></trkpt><trkpt lat="48.00686022314655" lon="7.000978822584429"><ele>834.0</ele><time>2026-04-05T12:56:42.001Z</time></trkpt><trkpt lat="48.00692853575159" lon="7.000959497441853"><ele>836.0</ele><time>2026-04-05T12:56:54.001Z</time></trkpt><trkpt lat="48.00699075044095" lon="7.000930270295622"><ele>838.0</ele><time>2026-04-05T12:57:06.001Z</time></trkpt><trkpt lat="48.00705378442707" lon="7.000919558790293"><ele>840.0</ele><time>2026-04-05T12:57:15.001Z</time></trkpt><trkpt lat="48.00711687892087" lon="7.0008986986450585"><ele>842.0</ele><time>2026-04-05T12:57:23.001Z</time></trkpt><trkpt lat="48.007180475548374" lon="7.000879160146607"><ele>844.0</ele><time>2026-04-05T12:57:33.001Z</time></trkpt><trkpt lat="48.00725284826851" lon="7.000856082313965"><ele>846.0</ele><time>2026-04-05T12:57:43.001Z</time></trkpt><trkpt lat="48.00732345737583" lon="7.000808302132304"><ele>846.0</ele><time>2026-04-05T12:57:50.001Z</time></trkpt><trkpt lat="48.007389751587674" lon="7.000804305405476"><ele>846.0</ele><time>2026-04-05T12:58:07.001Z</time></trkpt><trkpt lat="48.00744490104348" lon="7.0007167887725315"><ele>846.0</ele><time>2026-04-05T12:58:22.001Z</time></trkpt><trkpt lat="48.00751015931111" lon="7.000693063196098"><ele>846.0</ele><time>2026-04-05T12:58:32.001Z</time></trkpt><trkpt lat="48.00757081014338" lon="7.000665520076399"><ele>846.0</ele><time>2026-04-05T12:58:41.001Z</time></trkpt><trkpt lat="48.0076158540168" lon="7.000596224921755"><ele>846.0</ele><time>2026-04-05T12:58:46.001Z</time></trkpt><trkpt lat="48.007662434666216" lon="7.000527862358594"><ele>846.0</ele><time>2026-04-05T12:58:56.001Z</time></trkpt><trkpt lat="48.00772739674503" lon="7.000493814545042"><ele>847.7142857142857</ele><time>2026-04-05T12:59:03.001Z</time></trkpt><trkpt lat="48.0077942471768" lon="7.000460997810446"><ele>849.4285714285714</ele><time>2026-04-05T12:59:13.001Z</time></trkpt><trkpt lat="48.00786936890557" lon="7.0004297835024705"><ele>851.1428571428571</ele><time>2026-04-05T12:59:36.001Z</time></trkpt><trkpt lat="48.007942563777696" lon="7.000399369948878"><ele>852.8571428571429</ele><time>2026-04-05T12:59:46.001Z</time></trkpt><trkpt lat="48.00800411377863" lon="7.000373794994711"><ele>854.5714285714287</ele><time>2026-04-05T12:59:58.001Z</time></trkpt><trkpt lat="48.007951873846416" lon="7.00031276805121"><ele>856.2857142857143</ele><time>2026-04-05T13:00:10.001Z</time></trkpt><trkpt lat="48.007920777675075" lon="7.0002179313103206"><ele>858.0</ele><time>2026-04-05T13:00:15.001Z</time></trkpt><trkpt lat="48.00785467447122" lon="7.000230752137183"><ele>858.0</ele><time>2026-04-05T13:00:43.001Z</time></trkpt><trkpt lat="48.00792988195372" lon="7.000245230346158"><ele>858.0</ele><time>2026-04-05T13:01:14.001Z</time></trkpt><trkpt lat="48.00797695211044" lon="7.000179880054906"><ele>858.0</ele><time>2026-04-05T13:01:23.001Z</time></trkpt><trkpt lat="48.00804377833134" lon="7.000165241208176"><ele>858.0</ele><time>2026-04-05T13:01:39.001Z</time></trkpt><trkpt lat="48.008131890379644" lon="7.000296734064214"><ele>858.0</ele><time>2026-04-05T13:02:12Z</time></trkpt><trkpt lat="48.00819646066449" lon="7.000306169339305"><ele>858.0</ele><time>2026-04-05T13:02:29Z</time></trkpt><trkpt lat="48.008258965445926" lon="7.000285099519523"><ele>858.0</ele><time>2026-04-05T13:02:44Z</time></trkpt><trkpt lat="48.00831869981587" lon="7.00023643799262"><ele>858.0</ele><time>2026-04-05T13:03:58.999Z</time></trkpt><trkpt lat="48.00838569954542" lon="7.000229024048375"><ele>858.0</ele><time>2026-04-05T13:04:07.999Z</time></trkpt><trkpt lat="48.00845442575328" lon="7.000252797918757"><ele>858.0</ele><time>2026-04-05T13:04:17.999Z</time></trkpt><trkpt lat="48.00851928049497" lon="7.000225675053434"><ele>858.0</ele><time>2026-04-05T13:04:25Z</time></trkpt><trkpt lat="48.008584019690275" lon="7.000158515180851"><ele>858.0</ele><time>2026-04-05T13:04:39Z</time></trkpt><trkpt lat="48.00864387321693" lon="7.0000964237111925"><ele>858.0</ele><time>2026-04-05T13:04:47Z</time></trkpt><trkpt lat="48.00869995700815" lon="7.000037840110772"><ele>860.5714285714286</ele><time>2026-04-05T13:04:55Z</time></trkpt><trkpt lat="48.00876371262784" lon="6.999967204936332"><ele>863.1428571428571</ele><time>2026-04-05T13:05:02Z</time></trkpt><trkpt lat="48.00882033224647" lon="6.999904405236917"><ele>865.7142857142858</ele><time>2026-04-05T13:05:09Z</time></trkpt><trkpt lat="48.008879309791425" lon="6.9998387285542325"><ele>868.2857142857142</ele><time>2026-04-05T13:05:19Z</time></trkpt><trkpt lat="48.00893195280567" lon="6.999776511730637"><ele>870.8571428571428</ele><time>2026-04-05T13:05:33Z</time></trkpt><trkpt lat="48.008984352311465" lon="6.999717007041555"><ele>873.4285714285714</ele><time>2026-04-05T13:05:43Z</time></trkpt><trkpt lat="48.00901605106214" lon="6.999631487032953"><ele>876.0</ele><time>2026-04-05T13:05:57Z</time></trkpt><trkpt lat="48.00905053830991" lon="6.999546522165783"><ele>876.0</ele><time>2026-04-05T13:07:22Z</time></trkpt><trkpt lat="48.00907018174117" lon="6.999455303138432"><ele>876.0</ele><time>2026-04-05T13:07:33Z</time></trkpt><trkpt lat="48.00911749690346" lon="6.999372090394787"><ele>876.0</ele><time>2026-04-05T13:07:53.001Z</time></trkpt><trkpt lat="48.00914978343983" lon="6.9992879456667305"><ele>876.0</ele><time>2026-04-05T13:08:06.001Z</time></trkpt><trkpt lat="48.00917879803058" lon="6.999199570894775"><ele>876.0</ele><time>2026-04-05T13:08:18.001Z</time></trkpt><trkpt lat="48.009208889431505" lon="6.999105202414468"><ele>876.0</ele><time>2026-04-05T13:08:34.001Z</time></trkpt><trkpt lat="48.00923450177065" lon="6.99901544829051"><ele>876.0</ele><time>2026-04-05T13:08:52.001Z</time></trkpt><trkpt lat="48.00924198385923" lon="6.998906591734128"><ele>879.4285714285714</ele><time>2026-04-05T13:09:28.001Z</time></trkpt><trkpt lat="48.00929041168587" lon="6.998844097276794"><ele>882.8571428571429</ele><time>2026-04-05T13:09:53.001Z</time></trkpt><trkpt lat="48.00935508022316" lon="6.998830727730679"><ele>886.2857142857143</ele><time>2026-04-05T13:10:05.001Z</time></trkpt><trkpt lat="48.00940622799158" lon="6.998772738292667"><ele>889.7142857142858</ele><time>2026-04-05T13:10:13.001Z</time></trkpt><trkpt lat="48.00948179733958" lon="6.998766829582885"><ele>893.1428571428571</ele><time>2026-04-05T13:10:24.001Z</time></trkpt><trkpt lat="48.0095472394926" lon="6.998703636661681"><ele>896.5714285714287</ele><time>2026-04-05T13:10:41.001Z</time></trkpt><trkpt lat="48.009593720504675" lon="6.998633516159082"><ele>900.0000000000001</ele><time>2026-04-05T13:10:59.001Z</time></trkpt><trkpt lat="48.00965479729542" lon="6.998593175960728"><ele>900.0</ele><time>2026-04-05T13:11:12.001Z</time></trkpt><trkpt lat="48.009693715202324" lon="6.998511478533777"><ele>900.0</ele><time>2026-04-05T13:11:22.001Z</time></trkpt><trkpt lat="48.00976806757487" lon="6.998476483664967"><ele>900.0</ele><time>2026-04-05T13:11:41.001Z</time></trkpt><trkpt lat="48.009853204141436" lon="6.998397859781053"><ele>900.0</ele><time>2026-04-05T13:11:56.001Z</time></trkpt><trkpt lat="48.009861949695804" lon="6.998304489879964"><ele>900.0</ele><time>2026-04-05T13:12:14.001Z</time></trkpt><trkpt lat="48.00994732953691" lon="6.998311537220039"><ele>900.0</ele><time>2026-04-05T13:13:03.001Z</time></trkpt><trkpt lat="48.010007473995095" lon="6.998259253047744"><ele>903.4285714285716</ele><time>2026-04-05T13:13:14.001Z</time></trkpt><trkpt lat="48.01007588267281" lon="6.9982113594784225"><ele>906.8571428571429</ele><time>2026-04-05T13:13:23.001Z</time></trkpt><trkpt lat="48.01010952582869" lon="6.998128350342716"><ele>910.2857142857143</ele><time>2026-04-05T13:13:43.001Z</time></trkpt><trkpt lat="48.01016003671136" lon="6.998062870106757"><ele>913.7142857142858</ele><time>2026-04-05T13:14:05.001Z</time></trkpt><trkpt lat="48.01023995941832" lon="6.998053566229124"><ele>917.1428571428571</ele><time>2026-04-05T13:14:22.001Z</time></trkpt><trkpt lat="48.01032296339254" lon="6.997997866614454"><ele>920.5714285714286</ele><time>2026-04-05T13:14:33.001Z</time></trkpt><trkpt lat="48.010390034250364" lon="6.998019515655634"><ele>924.0</ele><time>2026-04-05T13:14:58.001Z</time></trkpt><trkpt lat="48.01046233176571" lon="6.997994454380921"><ele>924.0</ele><time>2026-04-05T13:15:10.001Z</time></trkpt><trkpt lat="48.010530278178976" lon="6.997970579914957"><ele>924.0</ele><time>2026-04-05T13:15:18Z</time></trkpt><trkpt lat="48.010595034783755" lon="6.9979476189551315"><ele>924.0</ele><time>2026-04-05T13:15:30Z</time></trkpt><trkpt lat="48.01066243767912" lon="6.997916919534851"><ele>924.0</ele><time>2026-04-05T13:15:43Z</time></trkpt><trkpt lat="48.01073093023019" lon="6.997911712023341"><ele>924.0</ele><time>2026-04-05T13:15:53Z</time></trkpt><trkpt lat="48.01077858586576" lon="6.9978375350552655"><ele>924.0</ele><time>2026-04-05T13:16:05Z</time></trkpt><trkpt lat="48.01085220401599" lon="6.997828489381908"><ele>924.0</ele><time>2026-04-05T13:16:48Z</time></trkpt><trkpt lat="48.01091611581539" lon="6.9978216150568855"><ele>928.0</ele><time>2026-04-05T13:16:59Z</time></trkpt><trkpt lat="48.010980851442206" lon="6.99781465218972"><ele>932.0</ele><time>2026-04-05T13:17:47Z</time></trkpt><trkpt lat="48.01097473470653" lon="6.997717592715104"><ele>936.0</ele><time>2026-04-05T13:17:56Z</time></trkpt><trkpt lat="48.011046245373485" lon="6.997737485793602"><ele>940.0</ele><time>2026-04-05T13:20:28Z</time></trkpt><trkpt lat="48.0109826024442" lon="6.997708925761949"><ele>944.0</ele><time>2026-04-05T13:21:13.999Z</time></trkpt><trkpt lat="48.01094303721456" lon="6.997784193910095"><ele>948.0</ele><time>2026-04-05T13:23:10Z</time></trkpt><trkpt lat="48.01088384930943" lon="6.997832985370875"><ele>952.0</ele><time>2026-04-05T13:27:00.999Z</time></trkpt><trkpt lat="48.01083284971396" lon="6.997898718466581"><ele>948.0</ele><time>2026-04-05T13:27:11.999Z</time></trkpt><trkpt lat="48.01077133444799" lon="6.997957529725661"><ele>944.0</ele><time>2026-04-05T13:27:21.999Z</time></trkpt><trkpt lat="48.01073802297991" lon="6.998042894900574"><ele>940.0</ele><time>2026-04-05T13:27:28Z</time></trkpt><trkpt lat="48.010677034948316" lon="6.99807285927412"><ele>936.0</ele><time>2026-04-05T13:27:35Z</time></trkpt><trkpt lat="48.010607814190074" lon="6.9981107518393175"><ele>932.0</ele><time>2026-04-05T13:27:43Z</time></trkpt><trkpt lat="48.010550273194696" lon="6.998153661134048"><ele>928.0</ele><time>2026-04-05T13:27:49Z</time></trkpt><trkpt lat="48.010512736684454" lon="6.998238353259287"><ele>924.0</ele><time>2026-04-05T13:27:58Z</time></trkpt><trkpt lat="48.01047347907561" lon="6.998320857202612"><ele>925.0</ele><time>2026-04-05T13:28:03Z</time></trkpt><trkpt lat="48.01042010897904" lon="6.998376111186183"><ele>926.0</ele><time>2026-04-05T13:28:10Z</time></trkpt><trkpt lat="48.01038713225701" lon="6.998470701636968"><ele>927.0</ele><time>2026-04-05T13:28:18Z</time></trkpt><trkpt lat="48.01034446715711" lon="6.998542281137463"><ele>928.0</ele><time>2026-04-05T13:28:27Z</time></trkpt><trkpt lat="48.01029899641649" lon="6.998617019846557"><ele>929.0</ele><time>2026-04-05T13:28:33Z</time></trkpt><trkpt lat="48.01026279959762" lon="6.998698705399809"><ele>930.0</ele><time>2026-04-05T13:28:42Z</time></trkpt><trkpt lat="48.0102320638491" lon="6.998784505854342"><ele>931.0</ele><time>2026-04-05T13:28:51Z</time></trkpt><trkpt lat="48.010208274418424" lon="6.9988802551021765"><ele>931.0</ele><time>2026-04-05T13:28:58Z</time></trkpt><trkpt lat="48.01016293576149" lon="6.998946198312707"><ele>931.0</ele><time>2026-04-05T13:29:04Z</time></trkpt><trkpt lat="48.01013575052806" lon="6.999035474955348"><ele>931.0</ele><time>2026-04-05T13:29:13Z</time></trkpt><trkpt lat="48.01010595606473" lon="6.999128169926601"><ele>931.0</ele><time>2026-04-05T13:29:21Z</time></trkpt><trkpt lat="48.010065304616816" lon="6.99920677796749"><ele>931.0</ele><time>2026-04-05T13:29:27Z</time></trkpt><trkpt lat="48.01002521018191" lon="6.9992825088713"><ele>931.0</ele><time>2026-04-05T13:29:34Z</time></trkpt><trkpt lat="48.009991115506416" lon="6.999365153650232"><ele>931.0</ele><time>2026-04-05T13:29:40Z</time></trkpt><trkpt lat="48.00995531970183" lon="6.99944698574697"><ele>927.4285714285714</ele><time>2026-04-05T13:29:46Z</time></trkpt><trkpt lat="48.00993430951501" lon="6.999540333749655"><ele>923.8571428571429</ele><time>2026-04-05T13:29:54Z</time></trkpt><trkpt lat="48.00990025124673" lon="6.999626780008236"><ele>920.2857142857142</ele><time>2026-04-05T13:30:02Z</time></trkpt><trkpt lat="48.009903684543005" lon="6.999725824405032"><ele>916.7142857142857</ele><time>2026-04-05T13:30:08Z</time></trkpt><trkpt lat="48.00988637117812" lon="6.999822115880008"><ele>913.1428571428571</ele><time>2026-04-05T13:30:17Z</time></trkpt><trkpt lat="48.0098414294664" lon="6.999897620087867"><ele>909.5714285714284</ele><time>2026-04-05T13:30:24Z</time></trkpt><trkpt lat="48.009805377042795" lon="6.999976529568155"><ele>905.9999999999999</ele><time>2026-04-05T13:30:31Z</time></trkpt><trkpt lat="48.009786651321804" lon="7.000077760844709"><ele>905.9999999999999</ele><time>2026-04-05T13:30:37Z</time></trkpt><trkpt lat="48.009748821717395" lon="7.000158426898699"><ele>906.0</ele><time>2026-04-05T13:30:43Z</time></trkpt><trkpt lat="48.00970432841268" lon="7.0002349509410315"><ele>905.9999999999999</ele><time>2026-04-05T13:30:48Z</time></trkpt><trkpt lat="48.0096532587493" lon="7.000298984723081"><ele>905.9999999999999</ele><time>2026-04-05T13:30:55.001Z</time></trkpt><trkpt lat="48.009625705266394" lon="7.000408224705929"><ele>906.0</ele><time>2026-04-05T13:31:02.001Z</time></trkpt><trkpt lat="48.00959128788162" lon="7.000501657404292"><ele>905.9999999999999</ele><time>2026-04-05T13:31:08.001Z</time></trkpt><trkpt lat="48.00955008046648" lon="7.000599888631001"><ele>905.9999999999999</ele><time>2026-04-05T13:31:17Z</time></trkpt><trkpt lat="48.00951409797614" lon="7.000689879718115"><ele>905.9999999999999</ele><time>2026-04-05T13:31:24Z</time></trkpt><trkpt lat="48.00949095337746" lon="7.000786893019516"><ele>906.0</ele><time>2026-04-05T13:31:31Z</time></trkpt><trkpt lat="48.00947377747091" lon="7.000880292183277"><ele>905.9999999999999</ele><time>2026-04-05T13:31:37Z</time></trkpt><trkpt lat="48.009480944681684" lon="7.000984816851477"><ele>905.9999999999999</ele><time>2026-04-05T13:31:43Z</time></trkpt><trkpt lat="48.00951218855175" lon="7.001076565063605"><ele>906.0</ele><time>2026-04-05T13:31:51Z</time></trkpt><trkpt lat="48.00954764560191" lon="7.001177858651685"><ele>905.9999999999999</ele><time>2026-04-05T13:31:59Z</time></trkpt><trkpt lat="48.009621113255626" lon="7.001207424360085"><ele>905.9999999999999</ele><time>2026-04-05T13:32:04Z</time></trkpt><trkpt lat="48.00967894122822" lon="7.001277171153838"><ele>908.4285714285713</ele><time>2026-04-05T13:32:12Z</time></trkpt><trkpt lat="48.00972291389504" lon="7.001356994135437"><ele>910.8571428571429</ele><time>2026-04-05T13:32:18Z</time></trkpt><trkpt lat="48.00974474082871" lon="7.001456026876157"><ele>913.2857142857142</ele><time>2026-04-05T13:32:24Z</time></trkpt><trkpt lat="48.00975524722347" lon="7.001554608192645"><ele>915.7142857142857</ele><time>2026-04-05T13:32:29Z</time></trkpt><trkpt lat="48.009746388770196" lon="7.001664934444844"><ele>918.1428571428571</ele><time>2026-04-05T13:32:35Z</time></trkpt><trkpt lat="48.00974961548985" lon="7.001772282143264"><ele>920.5714285714286</ele><time>2026-04-05T13:32:42Z</time></trkpt><trkpt lat="48.0097440447559" lon="7.001873223338582"><ele>923.0</ele><time>2026-04-05T13:32:50.001Z</time></trkpt><trkpt lat="48.009734071468166" lon="7.001977990241872"><ele>925.8571428571429</ele><time>2026-04-05T13:32:56.001Z</time></trkpt><trkpt lat="48.00972390542686" lon="7.002072831139569"><ele>928.7142857142858</ele><time>2026-04-05T13:33:02.001Z</time></trkpt><trkpt lat="48.00971087150459" lon="7.002180652931518"><ele>931.5714285714287</ele><time>2026-04-05T13:33:09.001Z</time></trkpt><trkpt lat="48.00969871441546" lon="7.002279718067163"><ele>934.4285714285714</ele><time>2026-04-05T13:33:15.001Z</time></trkpt><trkpt lat="48.00968756429133" lon="7.002388677649512"><ele>937.2857142857144</ele><time>2026-04-05T13:33:22Z</time></trkpt><trkpt lat="48.00968299046797" lon="7.002484022733746"><ele>940.1428571428572</ele><time>2026-04-05T13:33:28Z</time></trkpt><trkpt lat="48.00969151260168" lon="7.002590307797155"><ele>943.0</ele><time>2026-04-05T13:33:36Z</time></trkpt><trkpt lat="48.00974665511951" lon="7.002662519560373"><ele>943.0</ele><time>2026-04-05T13:33:49Z</time></trkpt><trkpt lat="48.00981107960136" lon="7.002637316025189"><ele>943.0000000000001</ele><time>2026-04-05T13:33:57Z</time></trkpt><trkpt lat="48.00986891244358" lon="7.002579900498636"><ele>943.0</ele><time>2026-04-05T13:34:03Z</time></trkpt><trkpt lat="48.00990998704794" lon="7.002505227659061"><ele>943.0</ele><time>2026-04-05T13:34:09Z</time></trkpt><trkpt lat="48.00994758627778" lon="7.002418032566917"><ele>943.0000000000001</ele><time>2026-04-05T13:34:18Z</time></trkpt><trkpt lat="48.01001056288539" lon="7.002365260720834"><ele>943.0</ele><time>2026-04-05T13:34:25Z</time></trkpt><trkpt lat="48.01007346408143" lon="7.002329519306605"><ele>943.0</ele><time>2026-04-05T13:34:42Z</time></trkpt><trkpt lat="48.01014350827758" lon="7.002291989909128"><ele>940.4285714285714</ele><time>2026-04-05T13:34:50Z</time></trkpt><trkpt lat="48.010204824027525" lon="7.00225587901767"><ele>937.8571428571429</ele><time>2026-04-05T13:34:58.001Z</time></trkpt><trkpt lat="48.01026498259473" lon="7.002205329613191"><ele>935.2857142857143</ele><time>2026-04-05T13:35:07.001Z</time></trkpt><trkpt lat="48.01032943558523" lon="7.002191665388757"><ele>932.7142857142858</ele><time>2026-04-05T13:35:15.001Z</time></trkpt><trkpt lat="48.01036374109193" lon="7.0022767982253535"><ele>930.1428571428571</ele><time>2026-04-05T13:35:28.001Z</time></trkpt><trkpt lat="48.010300297562864" lon="7.00233267027593"><ele>927.5714285714287</ele><time>2026-04-05T13:35:35Z</time></trkpt><trkpt lat="48.01024003074781" lon="7.002406323567829"><ele>925.0</ele><time>2026-04-05T13:35:45Z</time></trkpt><trkpt lat="48.01018909630894" lon="7.002463079872333"><ele>923.5714285714287</ele><time>2026-04-05T13:35:50Z</time></trkpt><trkpt lat="48.01013048327934" lon="7.002542684438356"><ele>922.1428571428571</ele><time>2026-04-05T13:35:59Z</time></trkpt><trkpt lat="48.01008524147316" lon="7.0026298154277145"><ele>920.7142857142858</ele><time>2026-04-05T13:36:05Z</time></trkpt><trkpt lat="48.01005280013242" lon="7.00271721285685"><ele>919.2857142857143</ele><time>2026-04-05T13:36:11Z</time></trkpt><trkpt lat="48.01002241287853" lon="7.002813627667689"><ele>917.8571428571429</ele><time>2026-04-05T13:36:17Z</time></trkpt><trkpt lat="48.00999881737951" lon="7.002901187910976"><ele>916.4285714285714</ele><time>2026-04-05T13:36:25Z</time></trkpt><trkpt lat="48.009977176576875" lon="7.002993447310873"><ele>915.0</ele><time>2026-04-05T13:36:31Z</time></trkpt><trkpt lat="48.00995670534908" lon="7.003086498164202"><ele>920.0</ele><time>2026-04-05T13:36:37Z</time></trkpt><trkpt lat="48.00993555966852" lon="7.003188879356752"><ele>925.0000000000001</ele><time>2026-04-05T13:36:44Z</time></trkpt><trkpt lat="48.00991779740038" lon="7.003281880825974"><ele>930.0</ele><time>2026-04-05T13:36:50Z</time></trkpt><trkpt lat="48.00990014621168" lon="7.003377054160211"><ele>935.0</ele><time>2026-04-05T13:36:56Z</time></trkpt><trkpt lat="48.009884969667105" lon="7.0034821263349665"><ele>940.0000000000001</ele><time>2026-04-05T13:37:04Z</time></trkpt><trkpt lat="48.009872962239356" lon="7.003578140594132"><ele>945.0</ele><time>2026-04-05T13:37:10Z</time></trkpt><trkpt lat="48.0098620982797" lon="7.00367514252504"><ele>950.0</ele><time>2026-04-05T13:37:16Z</time></trkpt><trkpt lat="48.009851451320216" lon="7.003770206998687"><ele>950.0</ele><time>2026-04-05T13:37:21.001Z</time></trkpt><trkpt lat="48.009840811606956" lon="7.003863573127438"><ele>950.0000000000001</ele><time>2026-04-05T13:37:27.001Z</time></trkpt><trkpt lat="48.00982821727738" lon="7.003965523755634"><ele>950.0</ele><time>2026-04-05T13:37:33.001Z</time></trkpt><trkpt lat="48.0098144969634" lon="7.004062253134743"><ele>950.0</ele><time>2026-04-05T13:37:45.001Z</time></trkpt><trkpt lat="48.00979904925538" lon="7.00415879511342"><ele>950.0000000000001</ele><time>2026-04-05T13:37:54Z</time></trkpt><trkpt lat="48.00977636706964" lon="7.004266074168808"><ele>950.0</ele><time>2026-04-05T13:38:01Z</time></trkpt><trkpt lat="48.009752193721695" lon="7.004354168090595"><ele>950.0</ele><time>2026-04-05T13:38:06Z</time></trkpt><trkpt lat="48.0097203010879" lon="7.004447556559478"><ele>947.7142857142858</ele><time>2026-04-05T13:38:12Z</time></trkpt><trkpt lat="48.00968527447514" lon="7.004537696226683"><ele>945.4285714285716</ele><time>2026-04-05T13:38:20Z</time></trkpt><trkpt lat="48.009675647463865" lon="7.004632466549024"><ele>943.1428571428571</ele><time>2026-04-05T13:38:26Z</time></trkpt><trkpt lat="48.009630813689114" lon="7.0047254910763375"><ele>940.8571428571429</ele><time>2026-04-05T13:38:33Z</time></trkpt><trkpt lat="48.0096164898327" lon="7.004838203811276"><ele>938.5714285714286</ele><time>2026-04-05T13:38:39Z</time></trkpt><trkpt lat="48.0096043219931" lon="7.0049347881162385"><ele>936.2857142857142</ele><time>2026-04-05T13:38:46Z</time></trkpt><trkpt lat="48.009554801298776" lon="7.004993435398925"><ele>933.9999999999999</ele><time>2026-04-05T13:38:51Z</time></trkpt><trkpt lat="48.009508612068466" lon="7.005063576405399"><ele>932.142857142857</ele><time>2026-04-05T13:38:55Z</time></trkpt><trkpt lat="48.009491862807096" lon="7.005165109445465"><ele>930.2857142857142</ele><time>2026-04-05T13:39:02Z</time></trkpt><trkpt lat="48.009476797473106" lon="7.005272066480625"><ele>928.4285714285714</ele><time>2026-04-05T13:39:09Z</time></trkpt><trkpt lat="48.00946655716353" lon="7.00536931910555"><ele>926.5714285714286</ele><time>2026-04-05T13:39:15Z</time></trkpt><trkpt lat="48.00941863475101" lon="7.005460603091767"><ele>924.7142857142858</ele><time>2026-04-05T13:39:21Z</time></trkpt><trkpt lat="48.00939907519367" lon="7.0055635968491785"><ele>922.857142857143</ele><time>2026-04-05T13:39:26Z</time></trkpt><trkpt lat="48.009465753074394" lon="7.005631228567711"><ele>921.0000000000001</ele><time>2026-04-05T13:39:31Z</time></trkpt><trkpt lat="48.009528072360084" lon="7.005583595229851"><ele>921.0</ele><time>2026-04-05T13:39:36Z</time></trkpt><trkpt lat="48.00958066668956" lon="7.005519551243419"><ele>921.0</ele><time>2026-04-05T13:39:41.001Z</time></trkpt><trkpt lat="48.00962157355427" lon="7.005422215385439"><ele>921.0</ele><time>2026-04-05T13:39:47.001Z</time></trkpt><trkpt lat="48.00964139811363" lon="7.005281130130828"><ele>921.0</ele><time>2026-04-05T13:40:03Z</time></trkpt><trkpt lat="48.00969752601261" lon="7.005216965070965"><ele>921.0</ele><time>2026-04-05T13:40:42Z</time></trkpt><trkpt lat="48.0097351794565" lon="7.005132857806308"><ele>921.0</ele><time>2026-04-05T13:40:49Z</time></trkpt><trkpt lat="48.009775979212726" lon="7.005042960199861"><ele>922.857142857143</ele><time>2026-04-05T13:40:57Z</time></trkpt><trkpt lat="48.009827440957885" lon="7.004963138854603"><ele>924.7142857142858</ele><time>2026-04-05T13:41:03Z</time></trkpt><trkpt lat="48.00987671769947" lon="7.004893770268995"><ele>926.5714285714286</ele><time>2026-04-05T13:41:09Z</time></trkpt><trkpt lat="48.00992678694488" lon="7.004831829865498"><ele>928.4285714285714</ele><time>2026-04-05T13:41:15Z</time></trkpt><trkpt lat="48.009969456839016" lon="7.004758039517601"><ele>930.2857142857142</ele><time>2026-04-05T13:41:20Z</time></trkpt><trkpt lat="48.01002273554316" lon="7.004688004897753"><ele>932.142857142857</ele><time>2026-04-05T13:41:33Z</time></trkpt><trkpt lat="48.010086500086686" lon="7.004635843610209"><ele>933.9999999999999</ele><time>2026-04-05T13:41:38Z</time></trkpt><trkpt lat="48.01014040851878" lon="7.004578935566186"><ele>929.8571428571427</ele><time>2026-04-05T13:41:44Z</time></trkpt><trkpt lat="48.0101887874224" lon="7.004513512204446"><ele>925.7142857142857</ele><time>2026-04-05T13:41:53Z</time></trkpt><trkpt lat="48.01024952289199" lon="7.0044500539686245"><ele>921.5714285714284</ele><time>2026-04-05T13:41:59Z</time></trkpt><trkpt lat="48.010296090410684" lon="7.004386207229935"><ele>917.4285714285713</ele><time>2026-04-05T13:42:03Z</time></trkpt><trkpt lat="48.01035090570837" lon="7.004314186291879"><ele>913.2857142857142</ele><time>2026-04-05T13:42:08Z</time></trkpt><trkpt lat="48.010408072917166" lon="7.0042709371630165"><ele>909.1428571428571</ele><time>2026-04-05T13:42:15Z</time></trkpt><trkpt lat="48.010464852719515" lon="7.004206090359587"><ele>905.0</ele><time>2026-04-05T13:42:22Z</time></trkpt><trkpt lat="48.01052938273815" lon="7.004159964666877"><ele>905.0</ele><time>2026-04-05T13:42:28Z</time></trkpt><trkpt lat="48.010589816313356" lon="7.004126474234783"><ele>904.9999999999999</ele><time>2026-04-05T13:42:34Z</time></trkpt><trkpt lat="48.01065610788497" lon="7.004050144616637"><ele>905.0</ele><time>2026-04-05T13:42:42Z</time></trkpt><trkpt lat="48.01071482739801" lon="7.004013826231182"><ele>905.0</ele><time>2026-04-05T13:42:46Z</time></trkpt><trkpt lat="48.010781827400564" lon="7.003975686735338"><ele>904.9999999999999</ele><time>2026-04-05T13:42:52Z</time></trkpt><trkpt lat="48.01085044689933" lon="7.003949097891988"><ele>905.0</ele><time>2026-04-05T13:42:58Z</time></trkpt><trkpt lat="48.01091525377357" lon="7.003927940749861"><ele>905.0</ele><time>2026-04-05T13:43:06Z</time></trkpt><trkpt lat="48.01097726121492" lon="7.003886666784387"><ele>900.7142857142857</ele><time>2026-04-05T13:43:10Z</time></trkpt><trkpt lat="48.01103933885742" lon="7.003858213003401"><ele>896.4285714285713</ele><time>2026-04-05T13:43:17Z</time></trkpt><trkpt lat="48.01109918982756" lon="7.003819578055684"><ele>892.1428571428571</ele><time>2026-04-05T13:43:22Z</time></trkpt><trkpt lat="48.01115492411635" lon="7.003767790788857"><ele>887.8571428571429</ele><time>2026-04-05T13:43:28Z</time></trkpt><trkpt lat="48.01123048592674" lon="7.003749592566624"><ele>883.5714285714286</ele><time>2026-04-05T13:43:38Z</time></trkpt><trkpt lat="48.01129388802895" lon="7.003729457431109"><ele>879.2857142857142</ele><time>2026-04-05T13:43:44Z</time></trkpt><trkpt lat="48.01137376181248" lon="7.003729574663884"><ele>875.0</ele><time>2026-04-05T13:43:50Z</time></trkpt><trkpt lat="48.011440873742394" lon="7.003741036787863"><ele>875.0</ele><time>2026-04-05T13:43:57Z</time></trkpt><trkpt lat="48.0115054398135" lon="7.003763508682398"><ele>875.0</ele><time>2026-04-05T13:44:04Z</time></trkpt><trkpt lat="48.01156444889852" lon="7.003813093293107"><ele>875.0</ele><time>2026-04-05T13:44:16Z</time></trkpt><trkpt lat="48.01160497650693" lon="7.003896009332495"><ele>875.0</ele><time>2026-04-05T13:44:23Z</time></trkpt><trkpt lat="48.011606465908386" lon="7.00399949463491"><ele>875.0</ele><time>2026-04-05T13:44:30Z</time></trkpt><trkpt lat="48.01160371607722" lon="7.004094020377783"><ele>875.0</ele><time>2026-04-05T13:44:38Z</time></trkpt><trkpt lat="48.011607304454" lon="7.004195383601517"><ele>875.0</ele><time>2026-04-05T13:44:44Z</time></trkpt><trkpt lat="48.01158650455584" lon="7.004296957203908"><ele>872.7142857142857</ele><time>2026-04-05T13:44:50Z</time></trkpt><trkpt lat="48.01159825387972" lon="7.004393183785767"><ele>870.4285714285714</ele><time>2026-04-05T13:44:56Z</time></trkpt><trkpt lat="48.011628470534276" lon="7.004491081827605"><ele>868.1428571428571</ele><time>2026-04-05T13:45:03Z</time></trkpt><trkpt lat="48.01166906628322" lon="7.004578127115797"><ele>865.8571428571429</ele><time>2026-04-05T13:45:15Z</time></trkpt><trkpt lat="48.011697929564406" lon="7.004663800470596"><ele>863.5714285714286</ele><time>2026-04-05T13:45:22Z</time></trkpt><trkpt lat="48.01173402209575" lon="7.004752021140936"><ele>861.2857142857142</ele><time>2026-04-05T13:45:29Z</time></trkpt><trkpt lat="48.011751023691446" lon="7.004856864500791"><ele>859.0</ele><time>2026-04-05T13:45:36Z</time></trkpt><trkpt lat="48.011743712416006" lon="7.004956166159034"><ele>857.5714285714286</ele><time>2026-04-05T13:45:43Z</time></trkpt><trkpt lat="48.01175236632768" lon="7.005061492399683"><ele>856.1428571428571</ele><time>2026-04-05T13:45:58Z</time></trkpt><trkpt lat="48.011742994966305" lon="7.005169134032222"><ele>854.7142857142858</ele><time>2026-04-05T13:46:09Z</time></trkpt><trkpt lat="48.0117429740738" lon="7.005264577492329"><ele>853.2857142857142</ele><time>2026-04-05T13:46:15Z</time></trkpt><trkpt lat="48.01172690773649" lon="7.005362209027464"><ele>851.8571428571429</ele><time>2026-04-05T13:46:21Z</time></trkpt><trkpt lat="48.01172422488289" lon="7.005459197158886"><ele>850.4285714285714</ele><time>2026-04-05T13:46:28Z</time></trkpt><trkpt lat="48.0116973039514" lon="7.005552927158389"><ele>849.0</ele><time>2026-04-05T13:46:35Z</time></trkpt><trkpt lat="48.0116744937535" lon="7.005643007988329"><ele>848.2857142857143</ele><time>2026-04-05T13:46:50Z</time></trkpt><trkpt lat="48.01164477735042" lon="7.005738577834524"><ele>847.5714285714286</ele><time>2026-04-05T13:47:05Z</time></trkpt><trkpt lat="48.01159521013451" lon="7.005807186602632"><ele>846.8571428571429</ele><time>2026-04-05T13:47:13Z</time></trkpt><trkpt lat="48.011550271565596" lon="7.005893513692209"><ele>846.1428571428571</ele><time>2026-04-05T13:47:19Z</time></trkpt><trkpt lat="48.01150172083691" lon="7.005967778590304"><ele>845.4285714285714</ele><time>2026-04-05T13:47:26Z</time></trkpt><trkpt lat="48.01146521684728" lon="7.006050487161264"><ele>844.7142857142858</ele><time>2026-04-05T13:47:32Z</time></trkpt><trkpt lat="48.011418215236155" lon="7.006118852250779"><ele>844.0</ele><time>2026-04-05T13:47:38Z</time></trkpt><trkpt lat="48.01138661973067" lon="7.006200991372255"><ele>843.1428571428571</ele><time>2026-04-05T13:47:43Z</time></trkpt><trkpt lat="48.011332791113105" lon="7.006267790892689"><ele>842.2857142857143</ele><time>2026-04-05T13:47:49Z</time></trkpt><trkpt lat="48.01128631145916" lon="7.006337837530189"><ele>841.4285714285713</ele><time>2026-04-05T13:47:55Z</time></trkpt><trkpt lat="48.01120879435207" lon="7.006348272258905"><ele>840.5714285714286</ele><time>2026-04-05T13:48:01Z</time></trkpt><trkpt lat="48.01113987936386" lon="7.0063525403644045"><ele>839.7142857142857</ele><time>2026-04-05T13:48:07Z</time></trkpt><trkpt lat="48.01107636729477" lon="7.006376709169696"><ele>838.8571428571428</ele><time>2026-04-05T13:48:13Z</time></trkpt><trkpt lat="48.01101599991527" lon="7.006427279759072"><ele>838.0</ele><time>2026-04-05T13:48:19Z</time></trkpt><trkpt lat="48.010962932036314" lon="7.006485946261038"><ele>837.9999999999999</ele><time>2026-04-05T13:48:25Z</time></trkpt><trkpt lat="48.01090939345227" lon="7.006540940742081"><ele>838.0</ele><time>2026-04-05T13:48:31Z</time></trkpt><trkpt lat="48.01084408916077" lon="7.006582128284197"><ele>838.0</ele><time>2026-04-05T13:48:36Z</time></trkpt><trkpt lat="48.01080349237379" lon="7.006669534705107"><ele>838.0</ele><time>2026-04-05T13:48:42Z</time></trkpt><trkpt lat="48.01074366751087" lon="7.006716778842247"><ele>838.0</ele><time>2026-04-05T13:48:49Z</time></trkpt><trkpt lat="48.010682413303094" lon="7.006741007701457"><ele>837.9999999999999</ele><time>2026-04-05T13:48:55Z</time></trkpt><trkpt lat="48.01061736362805" lon="7.00675105857101"><ele>838.0</ele><time>2026-04-05T13:49:00Z</time></trkpt><trkpt lat="48.010553802630604" lon="7.006762431278863"><ele>838.9999999999999</ele><time>2026-04-05T13:49:04Z</time></trkpt><trkpt lat="48.01048775471801" lon="7.006784639218412"><ele>840.0</ele><time>2026-04-05T13:49:09Z</time></trkpt><trkpt lat="48.010409902761495" lon="7.00680176668813"><ele>841.0</ele><time>2026-04-05T13:49:15Z</time></trkpt><trkpt lat="48.01035203969919" lon="7.006843096837966"><ele>842.0</ele><time>2026-04-05T13:49:21Z</time></trkpt><trkpt lat="48.01029197654039" lon="7.006897507682801"><ele>843.0</ele><time>2026-04-05T13:49:28Z</time></trkpt><trkpt lat="48.01024098514134" lon="7.006964589676919"><ele>843.9999999999999</ele><time>2026-04-05T13:49:34Z</time></trkpt><trkpt lat="48.01017857293739" lon="7.007023254635674"><ele>845.0</ele><time>2026-04-05T13:49:40Z</time></trkpt><trkpt lat="48.010108740927926" lon="7.0070625854064"><ele>844.9999999999999</ele><time>2026-04-05T13:49:47Z</time></trkpt><trkpt lat="48.01004952517886" lon="7.007115024143603"><ele>845.0</ele><time>2026-04-05T13:49:53Z</time></trkpt><trkpt lat="48.00998782950613" lon="7.007134474804504"><ele>845.0</ele><time>2026-04-05T13:50:02Z</time></trkpt><trkpt lat="48.00993052917" lon="7.007174327777227"><ele>845.0</ele><time>2026-04-05T13:50:05Z</time></trkpt><trkpt lat="48.00985667550269" lon="7.0072140168316315"><ele>845.0</ele><time>2026-04-05T13:50:12Z</time></trkpt><trkpt lat="48.009777995457874" lon="7.007246338934376"><ele>844.9999999999999</ele><time>2026-04-05T13:50:16Z</time></trkpt><trkpt lat="48.009723735189716" lon="7.007303274296467"><ele>845.0</ele><time>2026-04-05T13:50:21Z</time></trkpt><trkpt lat="48.00967414638626" lon="7.007362023381842"><ele>844.5714285714286</ele><time>2026-04-05T13:50:27Z</time></trkpt><trkpt lat="48.0096430921639" lon="7.007457433524173"><ele>844.1428571428571</ele><time>2026-04-05T13:50:34Z</time></trkpt><trkpt lat="48.00959282227924" lon="7.007519311212828"><ele>843.7142857142858</ele><time>2026-04-05T13:50:40Z</time></trkpt><trkpt lat="48.00953363652677" lon="7.007576165981076"><ele>843.2857142857142</ele><time>2026-04-05T13:50:45Z</time></trkpt><trkpt lat="48.00948694530192" lon="7.007641711495191"><ele>842.8571428571429</ele><time>2026-04-05T13:50:50Z</time></trkpt><trkpt lat="48.00943262451602" lon="7.007719760017006"><ele>842.4285714285714</ele><time>2026-04-05T13:50:56Z</time></trkpt><trkpt lat="48.00937298992224" lon="7.007750413829846"><ele>842.0</ele><time>2026-04-05T13:51:00Z</time></trkpt><trkpt lat="48.00932157156475" lon="7.007822089242705"><ele>842.0000000000001</ele><time>2026-04-05T13:51:08Z</time></trkpt><trkpt lat="48.00927536948808" lon="7.007890558364608"><ele>842.0</ele><time>2026-04-05T13:51:14Z</time></trkpt><trkpt lat="48.009217568939825" lon="7.007950261447588"><ele>842.0</ele><time>2026-04-05T13:51:19Z</time></trkpt><trkpt lat="48.009154700556685" lon="7.0079890273724805"><ele>842.0</ele><time>2026-04-05T13:51:24Z</time></trkpt><trkpt lat="48.009099380327065" lon="7.008037992133932"><ele>842.0</ele><time>2026-04-05T13:51:29Z</time></trkpt><trkpt lat="48.00903750997463" lon="7.008091364237003"><ele>842.0000000000001</ele><time>2026-04-05T13:51:35Z</time></trkpt><trkpt lat="48.00898179808761" lon="7.008154200432352"><ele>842.0</ele><time>2026-04-05T13:51:40Z</time></trkpt><trkpt lat="48.00892456427009" lon="7.00820449962869"><ele>841.2857142857143</ele><time>2026-04-05T13:51:44.999Z</time></trkpt><trkpt lat="48.008871268719496" lon="7.008261969003465"><ele>840.5714285714286</ele><time>2026-04-05T13:51:50.999Z</time></trkpt><trkpt lat="48.00882008582304" lon="7.008327828294295"><ele>839.8571428571429</ele><time>2026-04-05T13:51:57.999Z</time></trkpt><trkpt lat="48.008757050433694" lon="7.008384083328126"><ele>839.1428571428571</ele><time>2026-04-05T13:52:01.999Z</time></trkpt><trkpt lat="48.00870324636288" lon="7.008442386941901"><ele>838.4285714285714</ele><time>2026-04-05T13:52:06.999Z</time></trkpt><trkpt lat="48.008651321431465" lon="7.00850696542425"><ele>837.7142857142858</ele><time>2026-04-05T13:52:12Z</time></trkpt><trkpt lat="48.00861460925067" lon="7.008595832993955"><ele>837.0</ele><time>2026-04-05T13:52:19Z</time></trkpt><trkpt lat="48.00856403106257" lon="7.0086680318462715"><ele>837.0</ele><time>2026-04-05T13:52:24Z</time></trkpt><trkpt lat="48.008504309212285" lon="7.008728683883051"><ele>837.0</ele><time>2026-04-05T13:52:29Z</time></trkpt><trkpt lat="48.00845054035806" lon="7.008781159750773"><ele>837.0</ele><time>2026-04-05T13:52:35Z</time></trkpt><trkpt lat="48.008417503340034" lon="7.008864870096621"><ele>837.0</ele><time>2026-04-05T13:52:41Z</time></trkpt><trkpt lat="48.00837711380011" lon="7.00893856592587"><ele>837.0</ele><time>2026-04-05T13:52:46Z</time></trkpt><trkpt lat="48.00832286115994" lon="7.008989713573537"><ele>837.0</ele><time>2026-04-05T13:52:50Z</time></trkpt><trkpt lat="48.00829947683098" lon="7.009077661597457"><ele>837.0</ele><time>2026-04-05T13:53:09Z</time></trkpt><trkpt lat="48.00825560005068" lon="7.009149040393964"><ele>836.1428571428571</ele><time>2026-04-05T13:53:18Z</time></trkpt><trkpt lat="48.00818742527686" lon="7.009210377676151"><ele>835.2857142857143</ele><time>2026-04-05T13:53:21.999Z</time></trkpt><trkpt lat="48.00817592947511" lon="7.0093038069280995"><ele>834.4285714285713</ele><time>2026-04-05T13:53:38.999Z</time></trkpt><trkpt lat="48.00812596814259" lon="7.009375300684743"><ele>833.5714285714286</ele><time>2026-04-05T13:53:43.999Z</time></trkpt><trkpt lat="48.008077665128496" lon="7.009439866612873"><ele>832.7142857142857</ele><time>2026-04-05T13:53:49.999Z</time></trkpt><trkpt lat="48.0080282329429" lon="7.009509795061121"><ele>831.8571428571428</ele><time>2026-04-05T13:53:55.999Z</time></trkpt><trkpt lat="48.00797514266602" lon="7.009587563437224"><ele>831.0</ele><time>2026-04-05T13:54:01.999Z</time></trkpt><trkpt lat="48.00791976370599" lon="7.009648097919709"><ele>830.9999999999999</ele><time>2026-04-05T13:54:07.999Z</time></trkpt><trkpt lat="48.007847229858704" lon="7.0096708360919"><ele>831.0</ele><time>2026-04-05T13:55:15.999Z</time></trkpt><trkpt lat="48.00777003611688" lon="7.009628270003631"><ele>831.0</ele><time>2026-04-05T13:55:26.999Z</time></trkpt><trkpt lat="48.00770841519463" lon="7.00959507252238"><ele>831.0</ele><time>2026-04-05T13:55:31.999Z</time></trkpt><trkpt lat="48.00763837621467" lon="7.009570017516508"><ele>831.0</ele><time>2026-04-05T13:55:37.999Z</time></trkpt><trkpt lat="48.00756877828607" lon="7.009537714062985"><ele>830.9999999999999</ele><time>2026-04-05T13:55:42.999Z</time></trkpt><trkpt lat="48.00750563170328" lon="7.009504839961661"><ele>831.0</ele><time>2026-04-05T13:55:49Z</time></trkpt><trkpt lat="48.00744504440446" lon="7.009471474362292"><ele>830.9999999999999</ele><time>2026-04-05T13:55:55Z</time></trkpt><trkpt lat="48.007385147749424" lon="7.009435858294981"><ele>831.0</ele><time>2026-04-05T13:56:04Z</time></trkpt><trkpt lat="48.00731925546753" lon="7.009433476819249"><ele>831.0</ele><time>2026-04-05T13:56:09Z</time></trkpt><trkpt lat="48.00726580789701" lon="7.009493385472683"><ele>831.0</ele><time>2026-04-05T13:56:15Z</time></trkpt><trkpt lat="48.007304647585364" lon="7.009574776220451"><ele>831.0</ele><time>2026-04-05T13:56:25.999Z</time></trkpt><trkpt lat="48.00736797389778" lon="7.009624533660382"><ele>830.9999999999999</ele><time>2026-04-05T13:56:33.999Z</time></trkpt><trkpt lat="48.00743400915205" lon="7.009660418574277"><ele>831.0</ele><time>2026-04-05T13:56:42Z</time></trkpt><trkpt lat="48.00750310027859" lon="7.0096940165372486"><ele>830.9999999999999</ele><time>2026-04-05T13:56:47Z</time></trkpt><trkpt lat="48.007566411660015" lon="7.009723305019997"><ele>831.0</ele><time>2026-04-05T13:56:52Z</time></trkpt><trkpt lat="48.00763156757077" lon="7.009751328254925"><ele>831.0</ele><time>2026-04-05T13:56:58Z</time></trkpt><trkpt lat="48.0077110245889" lon="7.00978186212711"><ele>831.0</ele><time>2026-04-05T13:57:06Z</time></trkpt><trkpt lat="48.00778464938741" lon="7.0098058073929375"><ele>831.0</ele><time>2026-04-05T13:57:12Z</time></trkpt><trkpt lat="48.007847841235886" lon="7.009821478665836"><ele>830.9999999999999</ele><time>2026-04-05T13:57:17Z</time></trkpt><trkpt lat="48.00791066969567" lon="7.009830342656318"><ele>831.0</ele><time>2026-04-05T13:57:23Z</time></trkpt><trkpt lat="48.00797696424984" lon="7.009834000788408"><ele>830.9999999999999</ele><time>2026-04-05T13:57:27Z</time></trkpt><trkpt lat="48.00805233819684" lon="7.00983239687281"><ele>831.0</ele><time>2026-04-05T13:57:33Z</time></trkpt><trkpt lat="48.00812348317066" lon="7.009827196531326"><ele>831.0</ele><time>2026-04-05T13:57:39Z</time></trkpt><trkpt lat="48.00819073332415" lon="7.009822613937813"><ele>831.0</ele><time>2026-04-05T13:57:44Z</time></trkpt><trkpt lat="48.00825989915432" lon="7.009819476262704"><ele>831.0</ele><time>2026-04-05T13:57:50Z</time></trkpt><trkpt lat="48.00832505994602" lon="7.009820400527853"><ele>830.9999999999999</ele><time>2026-04-05T13:57:58Z</time></trkpt><trkpt lat="48.00839460329152" lon="7.009810899476157"><ele>831.0</ele><time>2026-04-05T13:58:05Z</time></trkpt><trkpt lat="48.008455473534625" lon="7.009772607869237"><ele>828.4285714285713</ele><time>2026-04-05T13:58:13Z</time></trkpt><trkpt lat="48.008511772703976" lon="7.00970467958004"><ele>825.8571428571429</ele><time>2026-04-05T13:58:20Z</time></trkpt><trkpt lat="48.008562277037576" lon="7.009635164093888"><ele>823.2857142857142</ele><time>2026-04-05T13:58:27Z</time></trkpt><trkpt lat="48.00862019823428" lon="7.009569088529246"><ele>820.7142857142857</ele><time>2026-04-05T13:58:33Z</time></trkpt><trkpt lat="48.00868341610312" lon="7.009544024631373"><ele>818.1428571428571</ele><time>2026-04-05T13:58:38Z</time></trkpt><trkpt lat="48.008742950354616" lon="7.009577118584556"><ele>815.5714285714286</ele><time>2026-04-05T13:58:43Z</time></trkpt><trkpt lat="48.00880319114808" lon="7.009637079307532"><ele>813.0</ele><time>2026-04-05T13:59:00Z</time></trkpt><trkpt lat="48.008741496003275" lon="7.009660232515767"><ele>813.0</ele><time>2026-04-05T13:59:18Z</time></trkpt><trkpt lat="48.0086892045778" lon="7.009719521762351"><ele>813.0</ele><time>2026-04-05T13:59:26Z</time></trkpt><trkpt lat="48.00863674041038" lon="7.009779755337437"><ele>813.0</ele><time>2026-04-05T13:59:45Z</time></trkpt><trkpt lat="48.0085790714471" lon="7.00983603367135"><ele>813.0</ele><time>2026-04-05T13:59:50Z</time></trkpt><trkpt lat="48.00852217049808" lon="7.009887709559521"><ele>813.0</ele><time>2026-04-05T13:59:57Z</time></trkpt><trkpt lat="48.0084665353025" lon="7.009939071962652"><ele>813.0</ele><time>2026-04-05T14:00:16Z</time></trkpt><trkpt lat="48.008407155231595" lon="7.00999513255053"><ele>813.0</ele><time>2026-04-05T14:00:21Z</time></trkpt><trkpt lat="48.008344623791366" lon="7.010037646761869"><ele>810.1428571428572</ele><time>2026-04-05T14:00:49Z</time></trkpt><trkpt lat="48.00828295879322" lon="7.010068904533387"><ele>807.2857142857142</ele><time>2026-04-05T14:00:56Z</time></trkpt><trkpt lat="48.00821533645658" lon="7.010098268660147"><ele>804.4285714285714</ele><time>2026-04-05T14:01:04Z</time></trkpt><trkpt lat="48.00814122627462" lon="7.010117966096822"><ele>801.5714285714287</ele><time>2026-04-05T14:01:10Z</time></trkpt><trkpt lat="48.00807701725877" lon="7.010125781038625"><ele>798.7142857142858</ele><time>2026-04-05T14:01:15Z</time></trkpt><trkpt lat="48.00801329780865" lon="7.010142598796743"><ele>795.8571428571429</ele><time>2026-04-05T14:01:21Z</time></trkpt><trkpt lat="48.00794793783802" lon="7.010159111029021"><ele>793.0</ele><time>2026-04-05T14:01:28Z</time></trkpt><trkpt lat="48.00787587374697" lon="7.010173842845054"><ele>793.0000000000001</ele><time>2026-04-05T14:01:34.001Z</time></trkpt><trkpt lat="48.00779996705421" lon="7.0101857115736035"><ele>793.0</ele><time>2026-04-05T14:01:40.001Z</time></trkpt><trkpt lat="48.00773514416885" lon="7.0101958472409365"><ele>793.0</ele><time>2026-04-05T14:01:46.001Z</time></trkpt><trkpt lat="48.00766529298343" lon="7.010209928947569"><ele>793.0</ele><time>2026-04-05T14:01:52.001Z</time></trkpt><trkpt lat="48.00758940115285" lon="7.010233724143056"><ele>793.0</ele><time>2026-04-05T14:01:57.001Z</time></trkpt><trkpt lat="48.00752055083228" lon="7.010261614594973"><ele>793.0000000000001</ele><time>2026-04-05T14:02:04.001Z</time></trkpt><trkpt lat="48.00745785566913" lon="7.010292502472019"><ele>793.0</ele><time>2026-04-05T14:02:10.001Z</time></trkpt><trkpt lat="48.00739391371284" lon="7.010328912495635"><ele>796.5714285714287</ele><time>2026-04-05T14:02:16.001Z</time></trkpt><trkpt lat="48.007334540306196" lon="7.010365666381029"><ele>800.1428571428571</ele><time>2026-04-05T14:02:23.001Z</time></trkpt><trkpt lat="48.00726709608145" lon="7.0104288324061415"><ele>803.7142857142858</ele><time>2026-04-05T14:02:31.001Z</time></trkpt><trkpt lat="48.00719844196069" lon="7.010494527788096"><ele>807.2857142857143</ele><time>2026-04-05T14:02:37.001Z</time></trkpt><trkpt lat="48.00713937313881" lon="7.010544943031204"><ele>810.8571428571429</ele><time>2026-04-05T14:02:42.001Z</time></trkpt><trkpt lat="48.007088690016175" lon="7.010602065129442"><ele>814.4285714285714</ele><time>2026-04-05T14:02:48.001Z</time></trkpt><trkpt lat="48.00703115017342" lon="7.010659915719452"><ele>818.0</ele><time>2026-04-05T14:02:55.001Z</time></trkpt><trkpt lat="48.006964079934534" lon="7.010715347416056"><ele>818.0</ele><time>2026-04-05T14:02:59.001Z</time></trkpt><trkpt lat="48.00690701574447" lon="7.0107570430764525"><ele>818.0</ele><time>2026-04-05T14:03:03.001Z</time></trkpt><trkpt lat="48.00684672220491" lon="7.010799303516927"><ele>818.0</ele><time>2026-04-05T14:03:08.001Z</time></trkpt><trkpt lat="48.0067865622672" lon="7.010840099466079"><ele>818.0</ele><time>2026-04-05T14:03:16.001Z</time></trkpt><trkpt lat="48.006726473991606" lon="7.010880847096911"><ele>818.0</ele><time>2026-04-05T14:03:22.001Z</time></trkpt><trkpt lat="48.00666502073204" lon="7.010922520229257"><ele>818.0</ele><time>2026-04-05T14:03:27.001Z</time></trkpt><trkpt lat="48.00660026714105" lon="7.010962397966215"><ele>818.0</ele><time>2026-04-05T14:03:32.001Z</time></trkpt><trkpt lat="48.006539551963414" lon="7.010995167842995"><ele>814.2857142857142</ele><time>2026-04-05T14:03:36.001Z</time></trkpt><trkpt lat="48.006475072665125" lon="7.011035958249274"><ele>810.5714285714287</ele><time>2026-04-05T14:03:41.001Z</time></trkpt><trkpt lat="48.00641911087792" lon="7.011093995217695"><ele>806.8571428571429</ele><time>2026-04-05T14:03:47.001Z</time></trkpt><trkpt lat="48.00637315403309" lon="7.01117264476511"><ele>803.1428571428571</ele><time>2026-04-05T14:03:53.001Z</time></trkpt><trkpt lat="48.00633616021727" lon="7.011271236712495"><ele>799.4285714285713</ele><time>2026-04-05T14:04:00.001Z</time></trkpt><trkpt lat="48.00631563199648" lon="7.011369551427132"><ele>795.7142857142858</ele><time>2026-04-05T14:04:06.001Z</time></trkpt><trkpt lat="48.00628708253582" lon="7.011464326285849"><ele>792.0</ele><time>2026-04-05T14:04:12.001Z</time></trkpt><trkpt lat="48.00625875705587" lon="7.011553109134931"><ele>792.0</ele><time>2026-04-05T14:04:18.001Z</time></trkpt><trkpt lat="48.006220878456695" lon="7.0116494623022065"><ele>792.0</ele><time>2026-04-05T14:04:25.001Z</time></trkpt><trkpt lat="48.00617426364301" lon="7.011740332061899"><ele>792.0</ele><time>2026-04-05T14:04:32.001Z</time></trkpt><trkpt lat="48.00612198793885" lon="7.011827042126976"><ele>792.0</ele><time>2026-04-05T14:04:39.001Z</time></trkpt><trkpt lat="48.00606880972483" lon="7.01188526089439"><ele>792.0</ele><time>2026-04-05T14:04:51Z</time></trkpt><trkpt lat="48.00600964588472" lon="7.011943277385"><ele>792.0</ele><time>2026-04-05T14:05:02Z</time></trkpt><trkpt lat="48.00594057938805" lon="7.011975550611977"><ele>792.0</ele><time>2026-04-05T14:05:09Z</time></trkpt><trkpt lat="48.00586619202032" lon="7.012016368822951"><ele>785.4285714285714</ele><time>2026-04-05T14:05:14Z</time></trkpt><trkpt lat="48.00580078513405" lon="7.011989116843919"><ele>778.8571428571428</ele><time>2026-04-05T14:05:18Z</time></trkpt><trkpt lat="48.00573835406627" lon="7.012016333519249"><ele>772.2857142857142</ele><time>2026-04-05T14:05:23Z</time></trkpt><trkpt lat="48.00568507966318" lon="7.0120826037785715"><ele>765.7142857142858</ele><time>2026-04-05T14:05:28Z</time></trkpt><trkpt lat="48.005621424644005" lon="7.012124078853843"><ele>759.1428571428571</ele><time>2026-04-05T14:05:34Z</time></trkpt><trkpt lat="48.005553477400824" lon="7.012066751204759"><ele>752.5714285714286</ele><time>2026-04-05T14:05:42Z</time></trkpt><trkpt lat="48.005496995651036" lon="7.011991864415702"><ele>746.0</ele><time>2026-04-05T14:05:50Z</time></trkpt><trkpt lat="48.005465351412575" lon="7.01189767705941"><ele>746.0</ele><time>2026-04-05T14:05:57Z</time></trkpt><trkpt lat="48.00540890795438" lon="7.011841286628897"><ele>746.0</ele><time>2026-04-05T14:06:03Z</time></trkpt><trkpt lat="48.005363834374094" lon="7.0117657285379265"><ele>746.0</ele><time>2026-04-05T14:06:09Z</time></trkpt><trkpt lat="48.00531246658263" lon="7.011697475441897"><ele>746.0</ele><time>2026-04-05T14:06:14Z</time></trkpt><trkpt lat="48.005262844263186" lon="7.011621985295336"><ele>746.0</ele><time>2026-04-05T14:06:20Z</time></trkpt><trkpt lat="48.005216172526666" lon="7.01154443435589"><ele>746.0</ele><time>2026-04-05T14:06:26Z</time></trkpt><trkpt lat="48.00517582942731" lon="7.011452762310884"><ele>746.0</ele><time>2026-04-05T14:06:33Z</time></trkpt><trkpt lat="48.005139680944616" lon="7.011369461054779"><ele>748.4285714285714</ele><time>2026-04-05T14:06:38Z</time></trkpt><trkpt lat="48.005105807321634" lon="7.01128886173924"><ele>750.8571428571429</ele><time>2026-04-05T14:06:44Z</time></trkpt><trkpt lat="48.00506699517908" lon="7.011196137438558"><ele>753.2857142857142</ele><time>2026-04-05T14:06:49Z</time></trkpt><trkpt lat="48.00503120657738" lon="7.011110669472051"><ele>755.7142857142858</ele><time>2026-04-05T14:06:56Z</time></trkpt><trkpt lat="48.00499758645085" lon="7.011029062855187"><ele>758.1428571428571</ele><time>2026-04-05T14:07:01Z</time></trkpt><trkpt lat="48.00495960983729" lon="7.010935290838217"><ele>760.5714285714286</ele><time>2026-04-05T14:07:08Z</time></trkpt><trkpt lat="48.004921403928144" lon="7.010840952664098"><ele>763.0</ele><time>2026-04-05T14:07:14Z</time></trkpt><trkpt lat="48.004884386272295" lon="7.010749548549015"><ele>758.0</ele><time>2026-04-05T14:07:19Z</time></trkpt><trkpt lat="48.00484517936765" lon="7.010650107581446"><ele>753.0</ele><time>2026-04-05T14:07:26Z</time></trkpt><trkpt lat="48.004807443250705" lon="7.010552770407345"><ele>748.0</ele><time>2026-04-05T14:07:32Z</time></trkpt><trkpt lat="48.00477166400102" lon="7.010460302694215"><ele>743.0</ele><time>2026-04-05T14:07:38Z</time></trkpt><trkpt lat="48.00474019425688" lon="7.010377203559417"><ele>738.0</ele><time>2026-04-05T14:07:43Z</time></trkpt><trkpt lat="48.004703509383695" lon="7.010279785870095"><ele>733.0</ele><time>2026-04-05T14:07:50Z</time></trkpt><trkpt lat="48.004669639076326" lon="7.010189842400739"><ele>728.0</ele><time>2026-04-05T14:07:55Z</time></trkpt><trkpt lat="48.004636553784074" lon="7.010099952178255"><ele>728.0</ele><time>2026-04-05T14:08:02Z</time></trkpt><trkpt lat="48.00460375895501" lon="7.010007024393617"><ele>728.0</ele><time>2026-04-05T14:08:07Z</time></trkpt><trkpt lat="48.00457420462248" lon="7.009920141874446"><ele>728.0</ele><time>2026-04-05T14:08:14Z</time></trkpt><trkpt lat="48.004543911492384" lon="7.0098270297299194"><ele>728.0</ele><time>2026-04-05T14:08:20Z</time></trkpt><trkpt lat="48.004510152184835" lon="7.009720605259732"><ele>728.0</ele><time>2026-04-05T14:08:26Z</time></trkpt><trkpt lat="48.00448220334612" lon="7.009629369692281"><ele>728.0</ele><time>2026-04-05T14:08:31Z</time></trkpt><trkpt lat="48.00445201603902" lon="7.009526625417133"><ele>728.0</ele><time>2026-04-05T14:08:38Z</time></trkpt><trkpt lat="48.00442378831709" lon="7.00943055073872"><ele>729.0</ele><time>2026-04-05T14:08:44Z</time></trkpt><trkpt lat="48.0043979469042" lon="7.0093425980055075"><ele>730.0</ele><time>2026-04-05T14:08:50Z</time></trkpt><trkpt lat="48.0043806573748" lon="7.0092455611049385"><ele>731.0</ele><time>2026-04-05T14:08:56.001Z</time></trkpt><trkpt lat="48.00433867337298" lon="7.009150674879111"><ele>732.0</ele><time>2026-04-05T14:09:01Z</time></trkpt><trkpt lat="48.00431133452369" lon="7.009063251466125"><ele>733.0</ele><time>2026-04-05T14:09:07Z</time></trkpt><trkpt lat="48.00428409217232" lon="7.008976136675394"><ele>734.0</ele><time>2026-04-05T14:09:12Z</time></trkpt><trkpt lat="48.00425397631346" lon="7.008879833016347"><ele>735.0</ele><time>2026-04-05T14:09:18Z</time></trkpt><trkpt lat="48.00422694998242" lon="7.008793409010242"><ele>736.5714285714286</ele><time>2026-04-05T14:09:24Z</time></trkpt><trkpt lat="48.00419824674197" lon="7.0086919372489405"><ele>738.1428571428571</ele><time>2026-04-05T14:09:30Z</time></trkpt><trkpt lat="48.00416906365755" lon="7.008608394013698"><ele>739.7142857142858</ele><time>2026-04-05T14:09:36Z</time></trkpt><trkpt lat="48.004139044209474" lon="7.008502973344224"><ele>741.2857142857142</ele><time>2026-04-05T14:09:42Z</time></trkpt><trkpt lat="48.00412109539583" lon="7.008411406378435"><ele>742.8571428571429</ele><time>2026-04-05T14:09:47Z</time></trkpt><trkpt lat="48.00409021877883" lon="7.008314356161473"><ele>744.4285714285714</ele><time>2026-04-05T14:09:53Z</time></trkpt><trkpt lat="48.004086208812645" lon="7.008205084231175"><ele>746.0</ele><time>2026-04-05T14:10:00Z</time></trkpt><trkpt lat="48.00405043916268" lon="7.008103408661826"><ele>742.8571428571429</ele><time>2026-04-05T14:10:05Z</time></trkpt><trkpt lat="48.004039763856724" lon="7.008009492598104"><ele>739.7142857142858</ele><time>2026-04-05T14:10:11Z</time></trkpt><trkpt lat="48.00399723034019" lon="7.007922153000612"><ele>736.5714285714286</ele><time>2026-04-05T14:10:18Z</time></trkpt><trkpt lat="48.0039664767667" lon="7.007839448393198"><ele>733.4285714285714</ele><time>2026-04-05T14:10:23Z</time></trkpt><trkpt lat="48.00394355274196" lon="7.007743261009956"><ele>730.2857142857142</ele><time>2026-04-05T14:10:29Z</time></trkpt><trkpt lat="48.00390901364538" lon="7.007655671877774"><ele>727.1428571428571</ele><time>2026-04-05T14:10:35Z</time></trkpt><trkpt lat="48.00386422013372" lon="7.00757696860331"><ele>724.0</ele><time>2026-04-05T14:10:39Z</time></trkpt><trkpt lat="48.00383027385062" lon="7.007485589381362"><ele>724.0</ele><time>2026-04-05T14:10:44Z</time></trkpt><trkpt lat="48.00379701183326" lon="7.007394782154383"><ele>724.0</ele><time>2026-04-05T14:10:51Z</time></trkpt><trkpt lat="48.003773333645896" lon="7.007297271114576"><ele>724.0</ele><time>2026-04-05T14:10:56Z</time></trkpt><trkpt lat="48.00374262014016" lon="7.007200353473109"><ele>724.0</ele><time>2026-04-05T14:11:03Z</time></trkpt><trkpt lat="48.003700598653346" lon="7.00710933706176"><ele>724.0</ele><time>2026-04-05T14:11:08Z</time></trkpt><trkpt lat="48.00366747095148" lon="7.007014421463096"><ele>724.0</ele><time>2026-04-05T14:11:14Z</time></trkpt><trkpt lat="48.00364091701046" lon="7.006911996858783"><ele>724.0</ele><time>2026-04-05T14:11:21Z</time></trkpt><trkpt lat="48.003614572633246" lon="7.006813342282611"><ele>724.0</ele><time>2026-04-05T14:11:27Z</time></trkpt><trkpt lat="48.00358118625216" lon="7.006730776885906"><ele>724.0</ele><time>2026-04-05T14:11:33Z</time></trkpt><trkpt lat="48.00356187670842" lon="7.006623180781156"><ele>724.0</ele><time>2026-04-05T14:11:38Z</time></trkpt><trkpt lat="48.003522381971294" lon="7.006539076077215"><ele>724.0</ele><time>2026-04-05T14:11:44Z</time></trkpt><trkpt lat="48.0034959242859" lon="7.0064459005382815"><ele>724.0</ele><time>2026-04-05T14:11:49Z</time></trkpt><trkpt lat="48.00347048489881" lon="7.006346206808287"><ele>724.0</ele><time>2026-04-05T14:11:55Z</time></trkpt><trkpt lat="48.00344680326446" lon="7.006253434662655"><ele>724.0</ele><time>2026-04-05T14:12:01Z</time></trkpt><trkpt lat="48.00340438757748" lon="7.006174489910358"><ele>725.0</ele><time>2026-04-05T14:12:06Z</time></trkpt><trkpt lat="48.003373102082215" lon="7.006070804817342"><ele>726.0</ele><time>2026-04-05T14:12:12Z</time></trkpt><trkpt lat="48.003347130156975" lon="7.005985071149485"><ele>727.0</ele><time>2026-04-05T14:12:17Z</time></trkpt><trkpt lat="48.00332615424713" lon="7.005889950091876"><ele>728.0</ele><time>2026-04-05T14:12:23Z</time></trkpt><trkpt lat="48.003304084450015" lon="7.005794965649991"><ele>729.0</ele><time>2026-04-05T14:12:29Z</time></trkpt><trkpt lat="48.00326420144824" lon="7.005711760029912"><ele>730.0</ele><time>2026-04-05T14:12:35Z</time></trkpt><trkpt lat="48.003224299728515" lon="7.005638103608448"><ele>731.0</ele><time>2026-04-05T14:12:40Z</time></trkpt><trkpt lat="48.00321394725851" lon="7.005531593998288"><ele>727.8571428571429</ele><time>2026-04-05T14:12:46Z</time></trkpt><trkpt lat="48.00318086266122" lon="7.005434403770977"><ele>724.7142857142857</ele><time>2026-04-05T14:12:52Z</time></trkpt><trkpt lat="48.00315647241064" lon="7.005337445918272"><ele>721.5714285714287</ele><time>2026-04-05T14:12:58Z</time></trkpt><trkpt lat="48.00312474044831" lon="7.005238616727479"><ele>718.4285714285714</ele><time>2026-04-05T14:13:04Z</time></trkpt><trkpt lat="48.003103474628475" lon="7.005149923906176"><ele>715.2857142857143</ele><time>2026-04-05T14:13:09Z</time></trkpt><trkpt lat="48.003068377457446" lon="7.005071777770388"><ele>712.1428571428572</ele><time>2026-04-05T14:13:15Z</time></trkpt><trkpt lat="48.00303520321495" lon="7.004985115245493"><ele>709.0</ele><time>2026-04-05T14:13:20Z</time></trkpt><trkpt lat="48.003011058329605" lon="7.004895349833086"><ele>709.0000000000001</ele><time>2026-04-05T14:13:25Z</time></trkpt><trkpt lat="48.002990403753785" lon="7.004793588649108"><ele>709.0</ele><time>2026-04-05T14:13:32Z</time></trkpt><trkpt lat="48.00296524474817" lon="7.00470439602694"><ele>709.0</ele><time>2026-04-05T14:13:38Z</time></trkpt><trkpt lat="48.0029355735134" lon="7.00460316751641"><ele>709.0</ele><time>2026-04-05T14:13:45Z</time></trkpt><trkpt lat="48.00290363360725" lon="7.004503937369366"><ele>709.0</ele><time>2026-04-05T14:13:50Z</time></trkpt><trkpt lat="48.00287046690831" lon="7.004402969256217"><ele>709.0000000000001</ele><time>2026-04-05T14:13:56Z</time></trkpt><trkpt lat="48.00284375995527" lon="7.004300391267908"><ele>709.0</ele><time>2026-04-05T14:14:02Z</time></trkpt><trkpt lat="48.00281449235365" lon="7.0041940384672134"><ele>710.7142857142858</ele><time>2026-04-05T14:14:09Z</time></trkpt><trkpt lat="48.00277269447132" lon="7.004118215938799"><ele>712.4285714285714</ele><time>2026-04-05T14:14:14Z</time></trkpt><trkpt lat="48.00274735423557" lon="7.004014937603649"><ele>714.1428571428571</ele><time>2026-04-05T14:14:21Z</time></trkpt><trkpt lat="48.00270074046225" lon="7.003934836769175"><ele>715.8571428571429</ele><time>2026-04-05T14:14:27Z</time></trkpt><trkpt lat="48.002662223370876" lon="7.003842488374905"><ele>717.5714285714286</ele><time>2026-04-05T14:14:33Z</time></trkpt><trkpt lat="48.002623103141275" lon="7.0037475408797825"><ele>719.2857142857143</ele><time>2026-04-05T14:14:39Z</time></trkpt><trkpt lat="48.00258934589271" lon="7.003660763878137"><ele>721.0</ele><time>2026-04-05T14:14:45Z</time></trkpt><trkpt lat="48.00254893119532" lon="7.003584822068266"><ele>721.0</ele><time>2026-04-05T14:14:50Z</time></trkpt><trkpt lat="48.002504944692234" lon="7.00350391524213"><ele>721.0</ele><time>2026-04-05T14:14:56Z</time></trkpt><trkpt lat="48.002456932981886" lon="7.003441962952418"><ele>721.0</ele><time>2026-04-05T14:15:01.001Z</time></trkpt><trkpt lat="48.0024150307102" lon="7.003362992564476"><ele>721.0</ele><time>2026-04-05T14:15:07.001Z</time></trkpt><trkpt lat="48.00236380930788" lon="7.003281389826717"><ele>721.0</ele><time>2026-04-05T14:15:16Z</time></trkpt><trkpt lat="48.002315993014086" lon="7.003212034666499"><ele>721.0</ele><time>2026-04-05T14:15:21Z</time></trkpt><trkpt lat="48.00226652177264" lon="7.003144093388803"><ele>721.0</ele><time>2026-04-05T14:15:26Z</time></trkpt><trkpt lat="48.00221393832036" lon="7.003080878284642"><ele>718.7142857142857</ele><time>2026-04-05T14:15:31Z</time></trkpt><trkpt lat="48.002152705980414" lon="7.0030263850973515"><ele>716.4285714285714</ele><time>2026-04-05T14:15:36Z</time></trkpt><trkpt lat="48.00209860653449" lon="7.002973778619579"><ele>714.1428571428571</ele><time>2026-04-05T14:15:41Z</time></trkpt><trkpt lat="48.00203910344882" lon="7.002915653839397"><ele>711.8571428571429</ele><time>2026-04-05T14:15:47Z</time></trkpt><trkpt lat="48.00198061917638" lon="7.002870282916464"><ele>709.5714285714286</ele><time>2026-04-05T14:15:53Z</time></trkpt><trkpt lat="48.00191736355293" lon="7.002822964661093"><ele>707.2857142857142</ele><time>2026-04-05T14:15:59Z</time></trkpt><trkpt lat="48.001862851802635" lon="7.002766233089735"><ele>705.0</ele><time>2026-04-05T14:16:06Z</time></trkpt><trkpt lat="48.001807886480684" lon="7.002697928904852"><ele>704.9999999999999</ele><time>2026-04-05T14:16:12Z</time></trkpt><trkpt lat="48.00175348314674" lon="7.002634251154472"><ele>705.0</ele><time>2026-04-05T14:16:19Z</time></trkpt><trkpt lat="48.00170548059512" lon="7.002536110755854"><ele>705.0</ele><time>2026-04-05T14:16:26Z</time></trkpt><trkpt lat="48.00166040882971" lon="7.00246919835358"><ele>705.0</ele><time>2026-04-05T14:16:31Z</time></trkpt><trkpt lat="48.00161268569966" lon="7.002397327510015"><ele>705.0</ele><time>2026-04-05T14:16:37Z</time></trkpt><trkpt lat="48.00157012795052" lon="7.002304639149574"><ele>704.9999999999999</ele><time>2026-04-05T14:16:43Z</time></trkpt><trkpt lat="48.00150798772226" lon="7.002249037928464"><ele>705.0</ele><time>2026-04-05T14:16:51Z</time></trkpt><trkpt lat="48.00144950476309" lon="7.002195317278977"><ele>701.0</ele><time>2026-04-05T14:16:57Z</time></trkpt><trkpt lat="48.00138763821326" lon="7.002136819272094"><ele>701.0</ele><time>2026-04-05T14:17:03.001Z</time></trkpt><trkpt lat="48.001347204374724" lon="7.002230367879865"><ele>701.0</ele><time>2026-04-05T14:17:09.001Z</time></trkpt></trkseg></trk></gpx>